Concerto — JJ3855 — position and weather

sailwx.info

Track history (hours):
 
Tides and Currents Weather Stations Pressure Air Temp Water Temp Dewpoint Dewpoint Depression Visibility Wind Speed Wind Dir Waves Ship Positions

Concerto

Last reported at 2016-Feb-13 11:33 UTC. Time now 2016-Feb-13 23:43 UTC.
Position N 34°38' E 135°10'.

Length 74 m; draft 3 m.

Type: Passenger vessel. MMSI: 431000448.

Date/timePositionNaut miles runAvg speedWind from/ knotsBaromVisibWave heightAir tempDewpointWater temp
2016-Feb-13 11:33N 34°38' E 135°10'2 2.2
2016-Feb-13 10:33N 34°40' E 135°11'1 0.6
2016-Feb-13 09:33N 34°39' E 135°11'1 0.6
2016-Feb-13 08:33N 34°39' E 135°11'2 1.7
2016-Feb-13 07:25N 34°41' E 135°11'3 4.0
2016-Feb-13 06:33N 34°38' E 135°09'3 3.2
2016-Feb-13 05:31N 34°41' E 135°11'0 0.5
2016-Feb-13 04:33N 34°40' E 135°11'3 3.1
2016-Feb-13 03:33N 34°38' E 135°09'3 2.8
2016-Feb-13 02:23N 34°41' E 135°11'0 0.0
2016-Feb-13 01:23N 34°41' E 135°11'0 0.0
2016-Feb-13 00:29N 34°41' E 135°11'0 0.0
2016-Feb-12 23:29N 34°41' E 135°11'0 0.0
2016-Feb-12 22:29N 34°41' E 135°11'0 0.0
2016-Feb-12 21:23N 34°41' E 135°11'0 0.0
2016-Feb-12 20:23N 34°41' E 135°11'0 0.0
2016-Feb-12 19:29N 34°41' E 135°11'0 0.0
2016-Feb-12 18:29N 34°41' E 135°11'0 0.0
2016-Feb-12 17:29N 34°41' E 135°11'0 0.0
2016-Feb-12 16:29N 34°41' E 135°11'0 0.0
2016-Feb-12 15:29N 34°41' E 135°11'0 0.0
2016-Feb-12 14:29N 34°41' E 135°11'0 0.0
2016-Feb-12 13:29N 34°41' E 135°11'0 0.0
2016-Feb-12 12:29N 34°41' E 135°11'3 3.2
2016-Feb-12 11:33N 34°38' E 135°10'2 2.4
2016-Feb-12 10:33N 34°40' E 135°11'1 0.9
2016-Feb-12 09:34N 34°39' E 135°11'1 0.7
2016-Feb-12 08:33N 34°39' E 135°11'2 2.0
2016-Feb-12 07:29N 34°41' E 135°11'3 3.4
2016-Feb-12 06:33N 34°38' E 135°10'3 2.7
2016-Feb-12 05:25N 34°41' E 135°11'1 0.6
2016-Feb-12 04:33N 34°40' E 135°12'3 3.3
2016-Feb-12 03:33N 34°38' E 135°09'3 3.4
2016-Feb-12 02:31N 34°41' E 135°11'0 0.0
2016-Feb-12 01:31N 34°41' E 135°11'0 0.0
2016-Feb-12 00:31N 34°41' E 135°11'0 0.0
2016-Feb-11 23:31N 34°41' E 135°11'0 0.0
2016-Feb-11 22:31N 34°41' E 135°11'0 0.0
2016-Feb-11 21:31N 34°41' E 135°11'0 0.0
2016-Feb-11 20:31N 34°41' E 135°11'0 0.0
2016-Feb-11 19:31N 34°41' E 135°11'0 0.0
2016-Feb-11 18:31N 34°41' E 135°11'0 0.0
2016-Feb-11 17:31N 34°41' E 135°11'0 0.0
2016-Feb-11 16:31N 34°41' E 135°11'0 0.0
2016-Feb-11 15:31N 34°41' E 135°11'0 0.0
2016-Feb-11 14:13N 34°41' E 135°11'0 0.0
2016-Feb-11 13:31N 34°41' E 135°11'0 0.0
2016-Feb-11 12:07N 34°41' E 135°11'3 5.0
2016-Feb-11 11:33N 34°38' E 135°10'2 2.3
2016-Feb-11 10:33N 34°40' E 135°12'1 1.1
2016-Feb-11 09:33N 34°39' E 135°11'1 0.5
2016-Feb-11 08:33N 34°39' E 135°11'2 2.0
2016-Feb-11 07:29N 34°41' E 135°11'3 3.4
2016-Feb-11 06:33N 34°38' E 135°10'3 2.9
2016-Feb-11 05:28N 34°41' E 135°11'0 0.5
2016-Feb-11 04:33N 34°40' E 135°11'3 3.2
2016-Feb-11 03:33N 34°38' E 135°09'3 0.2
2016-Feb-10 12:04N 34°41' E 135°11'3 5.5
2016-Feb-10 11:33N 34°38' E 135°10'2 2.1
2016-Feb-10 10:33N 34°40' E 135°11'1 0.4
2016-Feb-10 08:15N 34°41' E 135°11'0 0.2
2016-Feb-10 07:29N 34°41' E 135°11'3 2.9
2016-Feb-10 06:33N 34°38' E 135°10'3 2.7
2016-Feb-10 05:32N 34°41' E 135°11'1 0.6
2016-Feb-10 04:33N 34°40' E 135°12'3 3.0
2016-Feb-10 03:33N 34°38' E 135°09'3 2.9
2016-Feb-10 02:27N 34°41' E 135°11'0 0.0
2016-Feb-10 01:09N 34°41' E 135°11'0 0.0
2016-Feb-10 00:15N 34°41' E 135°11'0 0.0
2016-Feb-09 23:33N 34°41' E 135°11'0 0.0
2016-Feb-09 22:33N 34°41' E 135°11'0 0.0
2016-Feb-09 21:21N 34°41' E 135°11'0 0.0
2016-Feb-09 20:33N 34°41' E 135°11'0 0.0
2016-Feb-09 19:33N 34°41' E 135°11'0 0.0
2016-Feb-09 18:33N 34°41' E 135°11'0 0.0
2016-Feb-09 17:33N 34°41' E 135°11'0 0.0
2016-Feb-09 16:33N 34°41' E 135°11'0 0.0
2016-Feb-09 15:33N 34°41' E 135°11'0 0.0
2016-Feb-09 14:27N 34°41' E 135°11'0 0.0
2016-Feb-09 13:15N 34°41' E 135°11'0 0.0
2016-Feb-09 12:33N 34°41' E 135°11'3 2.6
2016-Feb-09 11:33N 34°38' E 135°11'2 1.7
2016-Feb-09 10:33N 34°40' E 135°11'1 0.7
2016-Feb-09 09:33N 34°39' E 135°11'1 0.8
2016-Feb-09 08:33N 34°39' E 135°11'2 2.0
2016-Feb-09 07:27N 34°41' E 135°11'3 3.5
2016-Feb-09 06:33N 34°38' E 135°09'3 3.1
2016-Feb-09 05:33N 34°41' E 135°11'1 0.7
2016-Feb-09 04:33N 34°40' E 135°12'3 2.7
2016-Feb-09 03:33N 34°38' E 135°10'3 0.2
2016-Feb-08 13:07N 34°41' E 135°11'0 0.0
2016-Feb-08 12:31N 34°41' E 135°11'3 3.1
2016-Feb-08 11:34N 34°38' E 135°10'2 2.1
2016-Feb-08 10:33N 34°40' E 135°11'1 0.5
2016-Feb-08 09:33N 34°39' E 135°11'1 0.7
2016-Feb-08 08:33N 34°39' E 135°11'2 2.2
2016-Feb-08 07:33N 34°41' E 135°11'3 3.2
2016-Feb-08 06:33N 34°38' E 135°09'3 3.1
2016-Feb-08 05:31N 34°41' E 135°11'1 0.5
2016-Feb-08 04:33N 34°40' E 135°11'3 3.0
2016-Feb-08 03:33N 34°38' E 135°09'1 0.1
2016-Feb-07 11:34N 34°38' E 135°11'2 1.8
2016-Feb-07 10:33N 34°40' E 135°11'1 0.6
2016-Feb-07 09:33N 34°39' E 135°11'1 0.8
2016-Feb-07 08:33N 34°39' E 135°11'2 2.0
2016-Feb-07 07:29N 34°41' E 135°11'3 3.4
2016-Feb-07 06:33N 34°38' E 135°09'3 3.0
2016-Feb-07 05:29N 34°41' E 135°11'0 0.5
2016-Feb-07 04:33N 34°40' E 135°11'3 3.1
2016-Feb-07 03:33N 34°38' E 135°09'0 0.0
2016-Feb-06 11:33N 34°38' E 135°10'3 2.8
2016-Feb-06 10:33N 34°40' E 135°11'1 0.7
2016-Feb-06 09:33N 34°39' E 135°11'1 0.9
2016-Feb-06 08:34N 34°39' E 135°11'2 2.2
2016-Feb-06 07:31N 34°41' E 135°11'3 3.5
2016-Feb-06 06:33N 34°38' E 135°09'3 3.2
2016-Feb-06 05:31N 34°41' E 135°11'1 0.8
2016-Feb-06 04:33N 34°40' E 135°12'3 2.6
2016-Feb-06 03:33N 34°38' E 135°10'3 2.9
2016-Feb-06 02:32N 34°41' E 135°11'0 0.0
2016-Feb-06 01:32N 34°41' E 135°11'0 0.0
2016-Feb-06 00:20N 34°41' E 135°11'0 0.0
2016-Feb-05 23:32N 34°41' E 135°11'0 0.0
2016-Feb-05 22:26N 34°41' E 135°11'0 0.0
2016-Feb-05 21:32N 34°41' E 135°11'0 0.0
2016-Feb-05 20:32N 34°41' E 135°11'0 0.0
2016-Feb-05 19:32N 34°41' E 135°11'0 0.0
2016-Feb-05 18:32N 34°41' E 135°11'0 0.0
2016-Feb-05 17:32N 34°41' E 135°11'0 0.0
2016-Feb-05 16:32N 34°41' E 135°11'0 0.0
2016-Feb-05 15:32N 34°41' E 135°11'0 0.0
2016-Feb-05 14:20N 34°41' E 135°11'0 0.0
2016-Feb-05 13:32N 34°41' E 135°11'0 0.0
2016-Feb-05 12:32N 34°41' E 135°11'2 2.6
2016-Feb-05 11:33N 34°38' E 135°11'1 1.4
2016-Feb-05 10:33N 34°40' E 135°11'1 0.8
2016-Feb-05 09:33N 34°39' E 135°11'1 0.6
2016-Feb-05 08:33N 34°38' E 135°11'2 2.4
2016-Feb-05 07:32N 34°41' E 135°11'3 3.1
2016-Feb-05 06:33N 34°38' E 135°09'3 2.3
2016-Feb-05 05:12N 34°41' E 135°11'1 1.0
2016-Feb-05 04:33N 34°40' E 135°12'3 2.8
2016-Feb-05 03:34N 34°38' E 135°10'3 2.8
2016-Feb-05 02:26N 34°41' E 135°11'0 0.0
2016-Feb-05 01:14N 34°41' E 135°11'0 0.0
2016-Feb-05 00:32N 34°41' E 135°11'0 0.0
2016-Feb-04 23:32N 34°41' E 135°11'0 0.0
2016-Feb-04 22:26N 34°41' E 135°11'0 0.0
2016-Feb-04 21:32N 34°41' E 135°11'0 0.0
2016-Feb-04 20:32N 34°41' E 135°11'0 0.0
2016-Feb-04 19:32N 34°41' E 135°11'0 0.0
2016-Feb-04 18:32N 34°41' E 135°11'0 0.0
2016-Feb-04 17:20N 34°41' E 135°11'0 0.0
2016-Feb-04 16:32N 34°41' E 135°11'0 0.0
2016-Feb-04 15:32N 34°41' E 135°11'0 0.0
2016-Feb-04 14:32N 34°41' E 135°11'0 0.0
2016-Feb-04 13:32N 34°41' E 135°11'0 0.0
2016-Feb-04 12:20N 34°41' E 135°11'3 3.3
2016-Feb-04 11:33N 34°38' E 135°11'2 1.5
2016-Feb-04 10:33N 34°40' E 135°11'1 0.6
2016-Feb-04 09:33N 34°39' E 135°11'1 0.9
2016-Feb-04 08:33N 34°39' E 135°11'2 1.9
2016-Feb-04 07:22N 34°41' E 135°11'3 3.8
2016-Feb-04 06:34N 34°38' E 135°09'3 3.0
2016-Feb-04 05:32N 34°41' E 135°11'1 0.5
2016-Feb-04 04:33N 34°40' E 135°11'3 2.9
2016-Feb-04 03:33N 34°38' E 135°10'3 1.5
2016-Feb-04 01:30N 34°41' E 135°11'0 0.0
2016-Feb-04 00:30N 34°41' E 135°11'0 0.0
2016-Feb-03 23:30N 34°41' E 135°11'0 0.0
2016-Feb-03 22:24N 34°41' E 135°11'0 0.0
2016-Feb-03 21:30N 34°41' E 135°11'0 0.0
2016-Feb-03 20:30N 34°41' E 135°11'0 0.0
2016-Feb-03 19:30N 34°41' E 135°11'0 0.0
2016-Feb-03 18:30N 34°41' E 135°11'0 0.0
2016-Feb-03 17:30N 34°41' E 135°11'0 0.0
2016-Feb-03 16:30N 34°41' E 135°11'0 0.0
2016-Feb-03 15:30N 34°41' E 135°11'0 0.0
2016-Feb-03 14:30N 34°41' E 135°11'0 0.0
2016-Feb-03 13:30N 34°41' E 135°11'0 0.0
2016-Feb-03 12:30N 34°41' E 135°11'  
Track history (hours):
 
Tides and Currents Weather Stations Pressure Air Temp Water Temp Dewpoint Dewpoint Depression Visibility Wind Speed Wind Dir Waves Ship Positions

Concerto

Last reported at 2016-Feb-13 11:33 UTC. Time now 2016-Feb-13 23:43 UTC.
Position N 34°38' E 135°10'.

Length 74 m; draft 3 m.

Type: Passenger vessel. MMSI: 431000448.

Date/timePositionNaut miles runAvg speedWind from/ knotsBaromVisibWave heightAir tempDewpointWater temp
2016-Feb-13 11:33N 34°38' E 135°10'2 2.2
2016-Feb-13 10:33N 34°40' E 135°11'1 0.6
2016-Feb-13 09:33N 34°39' E 135°11'1 0.6
2016-Feb-13 08:33N 34°39' E 135°11'2 1.7
2016-Feb-13 07:25N 34°41' E 135°11'3 4.0
2016-Feb-13 06:33N 34°38' E 135°09'3 3.2
2016-Feb-13 05:31N 34°41' E 135°11'0 0.5
2016-Feb-13 04:33N 34°40' E 135°11'3 3.1
2016-Feb-13 03:33N 34°38' E 135°09'3 2.8
2016-Feb-13 02:23N 34°41' E 135°11'0 0.0
2016-Feb-13 01:23N 34°41' E 135°11'0 0.0
2016-Feb-13 00:29N 34°41' E 135°11'0 0.0
2016-Feb-12 23:29N 34°41' E 135°11'0 0.0
2016-Feb-12 22:29N 34°41' E 135°11'0 0.0
2016-Feb-12 21:23N 34°41' E 135°11'0 0.0
2016-Feb-12 20:23N 34°41' E 135°11'0 0.0
2016-Feb-12 19:29N 34°41' E 135°11'0 0.0
2016-Feb-12 18:29N 34°41' E 135°11'0 0.0
2016-Feb-12 17:29N 34°41' E 135°11'0 0.0
2016-Feb-12 16:29N 34°41' E 135°11'0 0.0
2016-Feb-12 15:29N 34°41' E 135°11'0 0.0
2016-Feb-12 14:29N 34°41' E 135°11'0 0.0
2016-Feb-12 13:29N 34°41' E 135°11'0 0.0
2016-Feb-12 12:29N 34°41' E 135°11'3 3.2
2016-Feb-12 11:33N 34°38' E 135°10'2 2.4
2016-Feb-12 10:33N 34°40' E 135°11'1 0.9
2016-Feb-12 09:34N 34°39' E 135°11'1 0.7
2016-Feb-12 08:33N 34°39' E 135°11'2 2.0
2016-Feb-12 07:29N 34°41' E 135°11'3 3.4
2016-Feb-12 06:33N 34°38' E 135°10'3 2.7
2016-Feb-12 05:25N 34°41' E 135°11'1 0.6
2016-Feb-12 04:33N 34°40' E 135°12'3 3.3
2016-Feb-12 03:33N 34°38' E 135°09'3 3.4
2016-Feb-12 02:31N 34°41' E 135°11'0 0.0
2016-Feb-12 01:31N 34°41' E 135°11'0 0.0
2016-Feb-12 00:31N 34°41' E 135°11'0 0.0
2016-Feb-11 23:31N 34°41' E 135°11'0 0.0
2016-Feb-11 22:31N 34°41' E 135°11'0 0.0
2016-Feb-11 21:31N 34°41' E 135°11'0 0.0
2016-Feb-11 20:31N 34°41' E 135°11'0 0.0
2016-Feb-11 19:31N 34°41' E 135°11'0 0.0
2016-Feb-11 18:31N 34°41' E 135°11'0 0.0
2016-Feb-11 17:31N 34°41' E 135°11'0 0.0
2016-Feb-11 16:31N 34°41' E 135°11'0 0.0
2016-Feb-11 15:31N 34°41' E 135°11'0 0.0
2016-Feb-11 14:13N 34°41' E 135°11'0 0.0
2016-Feb-11 13:31N 34°41' E 135°11'0 0.0
2016-Feb-11 12:07N 34°41' E 135°11'3 5.0
2016-Feb-11 11:33N 34°38' E 135°10'2 2.3
2016-Feb-11 10:33N 34°40' E 135°12'1 1.1
2016-Feb-11 09:33N 34°39' E 135°11'1 0.5
2016-Feb-11 08:33N 34°39' E 135°11'2 2.0
2016-Feb-11 07:29N 34°41' E 135°11'3 3.4
2016-Feb-11 06:33N 34°38' E 135°10'3 2.9
2016-Feb-11 05:28N 34°41' E 135°11'0 0.5
2016-Feb-11 04:33N 34°40' E 135°11'3 3.2
2016-Feb-11 03:33N 34°38' E 135°09'3 0.2
2016-Feb-10 12:04N 34°41' E 135°11'3 5.5
2016-Feb-10 11:33N 34°38' E 135°10'2 2.1
2016-Feb-10 10:33N 34°40' E 135°11'1 0.4
2016-Feb-10 08:15N 34°41' E 135°11'0 0.2
2016-Feb-10 07:29N 34°41' E 135°11'3 2.9
2016-Feb-10 06:33N 34°38' E 135°10'3 2.7
2016-Feb-10 05:32N 34°41' E 135°11'1 0.6
2016-Feb-10 04:33N 34°40' E 135°12'3 3.0
2016-Feb-10 03:33N 34°38' E 135°09'3 2.9
2016-Feb-10 02:27N 34°41' E 135°11'0 0.0
2016-Feb-10 01:09N 34°41' E 135°11'0 0.0
2016-Feb-10 00:15N 34°41' E 135°11'0 0.0
2016-Feb-09 23:33N 34°41' E 135°11'0 0.0
2016-Feb-09 22:33N 34°41' E 135°11'0 0.0
2016-Feb-09 21:21N 34°41' E 135°11'0 0.0
2016-Feb-09 20:33N 34°41' E 135°11'0 0.0
2016-Feb-09 19:33N 34°41' E 135°11'0 0.0
2016-Feb-09 18:33N 34°41' E 135°11'0 0.0
2016-Feb-09 17:33N 34°41' E 135°11'0 0.0
2016-Feb-09 16:33N 34°41' E 135°11'0 0.0
2016-Feb-09 15:33N 34°41' E 135°11'0 0.0
2016-Feb-09 14:27N 34°41' E 135°11'0 0.0
2016-Feb-09 13:15N 34°41' E 135°11'0 0.0
2016-Feb-09 12:33N 34°41' E 135°11'3 2.6
2016-Feb-09 11:33N 34°38' E 135°11'2 1.7
2016-Feb-09 10:33N 34°40' E 135°11'1 0.7
2016-Feb-09 09:33N 34°39' E 135°11'1 0.8
2016-Feb-09 08:33N 34°39' E 135°11'2 2.0
2016-Feb-09 07:27N 34°41' E 135°11'3 3.5
2016-Feb-09 06:33N 34°38' E 135°09'3 3.1
2016-Feb-09 05:33N 34°41' E 135°11'1 0.7
2016-Feb-09 04:33N 34°40' E 135°12'3 2.7
2016-Feb-09 03:33N 34°38' E 135°10'3 0.2
2016-Feb-08 13:07N 34°41' E 135°11'0 0.0
2016-Feb-08 12:31N 34°41' E 135°11'3 3.1
2016-Feb-08 11:34N 34°38' E 135°10'2 2.1
2016-Feb-08 10:33N 34°40' E 135°11'1 0.5
2016-Feb-08 09:33N 34°39' E 135°11'1 0.7
2016-Feb-08 08:33N 34°39' E 135°11'2 2.2
2016-Feb-08 07:33N 34°41' E 135°11'3 3.2
2016-Feb-08 06:33N 34°38' E 135°09'3 3.1
2016-Feb-08 05:31N 34°41' E 135°11'1 0.5
2016-Feb-08 04:33N 34°40' E 135°11'3 3.0
2016-Feb-08 03:33N 34°38' E 135°09'1 0.1
2016-Feb-07 11:34N 34°38' E 135°11'2 1.8
2016-Feb-07 10:33N 34°40' E 135°11'1 0.6
2016-Feb-07 09:33N 34°39' E 135°11'1 0.8
2016-Feb-07 08:33N 34°39' E 135°11'2 2.0
2016-Feb-07 07:29N 34°41' E 135°11'3 3.4
2016-Feb-07 06:33N 34°38' E 135°09'3 3.0
2016-Feb-07 05:29N 34°41' E 135°11'0 0.5
2016-Feb-07 04:33N 34°40' E 135°11'3 3.1
2016-Feb-07 03:33N 34°38' E 135°09'0 0.0
2016-Feb-06 11:33N 34°38' E 135°10'3 2.8
2016-Feb-06 10:33N 34°40' E 135°11'1 0.7
2016-Feb-06 09:33N 34°39' E 135°11'1 0.9
2016-Feb-06 08:34N 34°39' E 135°11'2 2.2
2016-Feb-06 07:31N 34°41' E 135°11'3 3.5
2016-Feb-06 06:33N 34°38' E 135°09'3 3.2
2016-Feb-06 05:31N 34°41' E 135°11'1 0.8
2016-Feb-06 04:33N 34°40' E 135°12'3 2.6
2016-Feb-06 03:33N 34°38' E 135°10'3 2.9
2016-Feb-06 02:32N 34°41' E 135°11'0 0.0
2016-Feb-06 01:32N 34°41' E 135°11'0 0.0
2016-Feb-06 00:20N 34°41' E 135°11'0 0.0
2016-Feb-05 23:32N 34°41' E 135°11'0 0.0
2016-Feb-05 22:26N 34°41' E 135°11'0 0.0
2016-Feb-05 21:32N 34°41' E 135°11'0 0.0
2016-Feb-05 20:32N 34°41' E 135°11'0 0.0
2016-Feb-05 19:32N 34°41' E 135°11'0 0.0
2016-Feb-05 18:32N 34°41' E 135°11'0 0.0
2016-Feb-05 17:32N 34°41' E 135°11'0 0.0
2016-Feb-05 16:32N 34°41' E 135°11'0 0.0
2016-Feb-05 15:32N 34°41' E 135°11'0 0.0
2016-Feb-05 14:20N 34°41' E 135°11'0 0.0
2016-Feb-05 13:32N 34°41' E 135°11'0 0.0
2016-Feb-05 12:32N 34°41' E 135°11'2 2.6
2016-Feb-05 11:33N 34°38' E 135°11'1 1.4
2016-Feb-05 10:33N 34°40' E 135°11'1 0.8
2016-Feb-05 09:33N 34°39' E 135°11'1 0.6
2016-Feb-05 08:33N 34°38' E 135°11'2 2.4
2016-Feb-05 07:32N 34°41' E 135°11'3 3.1
2016-Feb-05 06:33N 34°38' E 135°09'3 2.3
2016-Feb-05 05:12N 34°41' E 135°11'1 1.0
2016-Feb-05 04:33N 34°40' E 135°12'3 2.8
2016-Feb-05 03:34N 34°38' E 135°10'3 2.8
2016-Feb-05 02:26N 34°41' E 135°11'0 0.0
2016-Feb-05 01:14N 34°41' E 135°11'0 0.0
2016-Feb-05 00:32N 34°41' E 135°11'0 0.0
2016-Feb-04 23:32N 34°41' E 135°11'0 0.0
2016-Feb-04 22:26N 34°41' E 135°11'0 0.0
2016-Feb-04 21:32N 34°41' E 135°11'0 0.0
2016-Feb-04 20:32N 34°41' E 135°11'0 0.0
2016-Feb-04 19:32N 34°41' E 135°11'0 0.0
2016-Feb-04 18:32N 34°41' E 135°11'0 0.0
2016-Feb-04 17:20N 34°41' E 135°11'0 0.0
2016-Feb-04 16:32N 34°41' E 135°11'0 0.0
2016-Feb-04 15:32N 34°41' E 135°11'0 0.0
2016-Feb-04 14:32N 34°41' E 135°11'0 0.0
2016-Feb-04 13:32N 34°41' E 135°11'0 0.0
2016-Feb-04 12:20N 34°41' E 135°11'3 3.3
2016-Feb-04 11:33N 34°38' E 135°11'2 1.5
2016-Feb-04 10:33N 34°40' E 135°11'1 0.6
2016-Feb-04 09:33N 34°39' E 135°11'1 0.9
2016-Feb-04 08:33N 34°39' E 135°11'2 1.9
2016-Feb-04 07:22N 34°41' E 135°11'3 3.8
2016-Feb-04 06:34N 34°38' E 135°09'3 3.0
2016-Feb-04 05:32N 34°41' E 135°11'1 0.5
2016-Feb-04 04:33N 34°40' E 135°11'3 2.9
2016-Feb-04 03:33N 34°38' E 135°10'3 1.5
2016-Feb-04 01:30N 34°41' E 135°11'0 0.0
2016-Feb-04 00:30N 34°41' E 135°11'0 0.0
2016-Feb-03 23:30N 34°41' E 135°11'0 0.0
2016-Feb-03 22:24N 34°41' E 135°11'0 0.0
2016-Feb-03 21:30N 34°41' E 135°11'0 0.0
2016-Feb-03 20:30N 34°41' E 135°11'0 0.0
2016-Feb-03 19:30N 34°41' E 135°11'0 0.0
2016-Feb-03 18:30N 34°41' E 135°11'0 0.0
2016-Feb-03 17:30N 34°41' E 135°11'0 0.0
2016-Feb-03 16:30N 34°41' E 135°11'0 0.0
2016-Feb-03 15:30N 34°41' E 135°11'0 0.0
2016-Feb-03 14:30N 34°41' E 135°11'0 0.0
2016-Feb-03 13:30N 34°41' E 135°11'0 0.0
2016-Feb-03 12:30N 34°41' E 135°11'  

Dump ship's entire track history